Milwaukee, Wisconsin
Traffic Map
Current Weather Conditions
Milwaukee, Wisconsin
Broken Clouds
Broken Clouds
74°
Feels Like: 74°
Wind Chill: 74° Ceiling: 20000
Heat Index: 74° Visibility: 10mi
Dew Point: 62° Wind: 13mph
Humidity: 66% Direction: 40° (NE)
Pressure: 30.02in Gusts: 0mph
Raw Report DataKMKE 302152Z 04011KT 10SM FEW035 BKN200 23/17 A3002 RMK AO2 SLP160 T02330167
Traffic Incident Summary
Active as of:
Severity:
Category:
InformationThere was an issue retrieving the traffic information for this location. Please try a different location or try again shortly.
Advertisements
Track Severe Weather on mobile